createdAt,value
2019-03-25T00:01:25.083Z,9.90
2019-03-25T00:06:28.486Z,9.80
2019-03-25T00:11:31.887Z,9.80
2019-03-25T00:16:35.274Z,9.80
2019-03-25T00:21:38.667Z,9.80
2019-03-25T00:26:42.059Z,9.80
2019-03-25T00:31:45.460Z,9.80
2019-03-25T00:36:48.840Z,9.80
2019-03-25T00:41:52.223Z,9.70
2019-03-25T00:46:55.612Z,9.70
2019-03-25T00:51:59.089Z,9.70
2019-03-25T00:57:02.485Z,9.70
2019-03-25T01:02:05.875Z,9.70
2019-03-25T01:07:09.276Z,9.60
2019-03-25T01:12:12.647Z,9.60
2019-03-25T01:17:16.032Z,9.60
2019-03-25T01:22:19.433Z,9.60
2019-03-25T01:27:22.808Z,9.60
2019-03-25T01:32:26.206Z,9.60
2019-03-25T01:37:29.601Z,9.60
2019-03-25T01:42:32.987Z,9.50
2019-03-25T01:47:36.378Z,9.50
2019-03-25T01:52:39.759Z,9.50
2019-03-25T01:57:43.158Z,9.50
2019-03-25T02:02:46.545Z,9.50
2019-03-25T02:07:50.102Z,9.40
2019-03-25T02:12:53.496Z,9.40
2019-03-25T02:17:56.895Z,9.40
2019-03-25T02:23:00.490Z,9.40
2019-03-25T02:28:04.055Z,9.40
2019-03-25T02:33:07.445Z,9.40
2019-03-25T02:38:10.832Z,9.30
2019-03-25T02:43:14.216Z,9.30
2019-03-25T02:48:17.608Z,9.30
2019-03-25T02:53:20.992Z,9.30
2019-03-25T02:58:24.419Z,9.30
2019-03-25T03:03:27.790Z,9.20
2019-03-25T03:08:31.178Z,9.20
2019-03-25T03:13:34.574Z,9.20
2019-03-25T03:18:37.950Z,9.10
2019-03-25T03:23:41.328Z,9.20
2019-03-25T03:28:44.749Z,9.10
2019-03-25T03:33:48.182Z,9.10
2019-03-25T03:38:51.556Z,9.10
2019-03-25T03:43:54.939Z,9.00
2019-03-25T03:48:58.328Z,9.00
2019-03-25T03:54:01.967Z,8.90
2019-03-25T03:59:05.442Z,8.90
2019-03-25T04:04:08.859Z,8.80
2019-03-25T04:09:12.241Z,8.80
2019-03-25T04:14:15.628Z,8.70
2019-03-25T04:19:19.009Z,8.60
2019-03-25T04:24:22.392Z,8.60
2019-03-25T04:29:25.771Z,8.60
2019-03-25T04:34:29.164Z,8.50
2019-03-25T04:39:32.552Z,8.50
2019-03-25T04:44:35.951Z,8.50
2019-03-25T04:49:39.342Z,8.40
2019-03-25T04:54:42.783Z,8.40
2019-03-25T04:59:46.163Z,8.40
2019-03-25T05:04:49.553Z,8.30
2019-03-25T05:09:52.976Z,8.30
2019-03-25T05:14:56.361Z,8.30
2019-03-25T05:19:59.731Z,8.20
2019-03-25T05:25:03.556Z,8.20
2019-03-25T05:30:07.477Z,8.10
2019-03-25T05:35:12.228Z,8.10
2019-03-25T05:40:15.611Z,8.00
2019-03-25T05:45:18.991Z,8.00
2019-03-25T05:50:22.383Z,7.90
2019-03-25T05:55:25.766Z,7.90
2019-03-25T06:00:30.811Z,7.80
2019-03-25T06:05:34.192Z,7.80
2019-03-25T06:10:37.576Z,7.80
2019-03-25T06:15:40.959Z,7.80
2019-03-25T06:20:44.356Z,7.80
2019-03-25T06:25:47.739Z,7.80
2019-03-25T06:30:51.133Z,7.80
2019-03-25T06:35:54.517Z,7.90
2019-03-25T06:40:57.907Z,7.90
2019-03-25T06:46:01.483Z,8.00
2019-03-25T06:51:04.919Z,8.10
2019-03-25T06:56:08.314Z,8.20
2019-03-25T07:01:11.715Z,8.40
2019-03-25T07:06:15.108Z,8.50
2019-03-25T07:11:18.663Z,8.70
2019-03-25T07:16:22.055Z,8.90
2019-03-25T07:21:25.449Z,9.20
2019-03-25T07:26:28.835Z,9.50
2019-03-25T07:31:32.220Z,9.80
2019-03-25T07:36:35.620Z,10.10
2019-03-25T07:41:39.016Z,10.30
2019-03-25T07:46:42.399Z,10.50
2019-03-25T07:51:45.793Z,10.70
2019-03-25T07:56:49.198Z,10.90
2019-03-25T08:01:52.579Z,11.00
2019-03-25T08:06:55.968Z,11.30
2019-03-25T08:11:59.343Z,11.40
2019-03-25T08:17:02.715Z,11.60
2019-03-25T08:22:06.092Z,11.90
2019-03-25T08:27:09.484Z,12.00
2019-03-25T08:32:12.879Z,12.10
2019-03-25T08:37:16.272Z,12.20
2019-03-25T08:42:19.660Z,12.40
2019-03-25T08:47:23.044Z,12.50
2019-03-25T08:52:26.432Z,12.70
2019-03-25T08:57:29.887Z,12.90
2019-03-25T09:02:33.275Z,12.90
2019-03-25T09:07:36.733Z,13.00
2019-03-25T09:12:40.130Z,13.10
2019-03-25T09:17:43.528Z,13.20
2019-03-25T09:22:48.095Z,13.10
2019-03-25T09:27:51.484Z,13.30
2019-03-25T09:32:54.892Z,13.40
2019-03-25T09:37:58.283Z,13.50
2019-03-25T09:43:01.675Z,13.70
2019-03-25T09:48:05.273Z,13.70
2019-03-25T09:53:08.665Z,13.60
2019-03-25T09:58:12.055Z,13.40
2019-03-25T10:03:15.449Z,13.30
2019-03-25T10:08:18.823Z,13.10
2019-03-25T10:13:22.216Z,12.80
2019-03-25T10:18:25.612Z,12.50
2019-03-25T10:23:29.073Z,12.30
2019-03-25T10:28:32.491Z,12.00
2019-03-25T10:33:35.879Z,11.80
2019-03-25T10:38:39.341Z,11.60
2019-03-25T10:43:42.737Z,11.40
2019-03-25T10:48:46.115Z,11.20
2019-03-25T10:53:50.411Z,11.00
2019-03-25T10:58:58.098Z,10.90
2019-03-25T11:03:58.891Z,10.80
2019-03-25T11:09:02.278Z,10.70
2019-03-25T11:14:05.685Z,10.80
2019-03-25T11:19:09.074Z,10.80
2019-03-25T11:24:12.471Z,11.20
2019-03-25T11:29:15.855Z,11.40
2019-03-25T11:34:19.277Z,11.70
2019-03-25T11:39:22.643Z,11.90
2019-03-25T11:44:26.036Z,11.90
2019-03-25T11:49:29.431Z,12.10
2019-03-25T11:54:32.855Z,12.20
2019-03-25T11:59:36.240Z,12.40
2019-03-25T12:04:39.627Z,12.50
2019-03-25T12:09:43.029Z,12.50
2019-03-25T12:14:46.411Z,12.50
2019-03-25T12:19:49.791Z,12.50
2019-03-25T12:24:53.179Z,12.40
2019-03-25T12:29:56.568Z,12.20
2019-03-25T12:34:59.957Z,12.00
2019-03-25T12:40:03.924Z,11.70
2019-03-25T12:45:08.067Z,11.40
2019-03-25T12:50:11.755Z,11.20
2019-03-25T12:55:15.255Z,11.00
2019-03-25T13:00:21.726Z,10.90
2019-03-25T13:05:25.127Z,10.80
2019-03-25T13:10:28.502Z,10.70
2019-03-25T13:15:31.887Z,10.70
2019-03-25T13:20:35.280Z,10.80
2019-03-25T13:25:39.633Z,10.80
2019-03-25T13:30:43.142Z,10.80
2019-03-25T13:35:46.522Z,10.80
2019-03-25T13:40:49.910Z,10.80
2019-03-25T13:45:53.296Z,10.90
2019-03-25T13:50:56.693Z,11.00
2019-03-25T13:56:00.078Z,11.10
2019-03-25T14:01:03.458Z,11.10
2019-03-25T14:06:06.842Z,11.10
2019-03-25T14:11:10.219Z,11.00
2019-03-25T14:16:13.607Z,10.80
2019-03-25T14:21:16.990Z,10.60
2019-03-25T14:26:20.374Z,10.40
2019-03-25T14:31:23.768Z,10.20
2019-03-25T14:36:27.148Z,10.20
2019-03-25T14:41:30.699Z,10.20
2019-03-25T14:46:34.082Z,10.20
2019-03-25T14:51:37.458Z,10.30
2019-03-25T14:56:40.859Z,10.40
2019-03-25T15:01:44.244Z,10.50
2019-03-25T15:06:47.654Z,10.50
2019-03-25T15:11:51.040Z,10.50
2019-03-25T15:16:54.414Z,10.50
2019-03-25T15:21:57.828Z,10.40
2019-03-25T15:27:01.248Z,10.40
2019-03-25T15:32:04.658Z,10.50
2019-03-25T15:37:08.045Z,10.40
2019-03-25T15:42:11.442Z,10.30
2019-03-25T15:47:15.030Z,10.20
2019-03-25T15:52:18.430Z,10.10
2019-03-25T15:57:21.818Z,9.90
2019-03-25T16:02:25.196Z,9.70
2019-03-25T16:07:28.579Z,9.50
2019-03-25T16:12:31.967Z,9.40
2019-03-25T16:17:35.350Z,9.20
2019-03-25T16:22:38.739Z,9.00
2019-03-25T16:27:42.119Z,9.00
2019-03-25T16:32:45.495Z,8.90
2019-03-25T16:37:48.875Z,8.90
2019-03-25T16:42:52.264Z,8.70
2019-03-25T16:47:55.639Z,8.60
2019-03-25T16:52:59.026Z,8.60
2019-03-25T16:58:02.404Z,8.50
2019-03-25T17:03:05.798Z,8.40
2019-03-25T17:08:09.180Z,8.30
2019-03-25T17:13:12.551Z,8.20
2019-03-25T17:18:15.934Z,8.10
2019-03-25T17:23:19.320Z,8.00
2019-03-25T17:28:22.771Z,7.90
2019-03-25T17:33:26.186Z,7.80
2019-03-25T17:38:29.584Z,7.70
2019-03-25T17:43:32.959Z,7.60
2019-03-25T17:48:36.359Z,7.50
2019-03-25T17:53:39.743Z,7.50
2019-03-25T17:58:43.121Z,7.40
2019-03-25T18:03:46.512Z,7.20
2019-03-25T18:08:49.886Z,7.20
2019-03-25T18:13:53.262Z,7.20
2019-03-25T18:18:56.800Z,7.10
2019-03-25T18:24:00.183Z,7.00
2019-03-25T18:29:03.635Z,6.90
2019-03-25T18:34:07.088Z,6.80
2019-03-25T18:39:10.475Z,6.70
2019-03-25T18:44:13.872Z,6.60
2019-03-25T18:49:17.283Z,6.50
2019-03-25T18:54:20.672Z,6.40
2019-03-25T18:59:24.146Z,6.40
2019-03-25T19:04:27.576Z,6.30
2019-03-25T19:09:31.152Z,6.20
2019-03-25T19:14:34.608Z,6.10
2019-03-25T19:19:38.075Z,6.10
2019-03-25T19:24:41.460Z,6.00
2019-03-25T19:29:44.869Z,5.90
2019-03-25T19:34:48.226Z,5.80
2019-03-25T19:39:51.640Z,5.70
2019-03-25T19:44:55.144Z,5.70
2019-03-25T19:49:58.533Z,5.60
2019-03-25T19:55:01.941Z,5.50
2019-03-25T20:00:10.100Z,5.50
2019-03-25T20:05:13.577Z,5.40
2019-03-25T20:10:20.061Z,5.40
2019-03-25T20:15:23.535Z,5.30
2019-03-25T20:20:26.991Z,5.20
2019-03-25T20:25:30.447Z,5.20
2019-03-25T20:30:33.923Z,5.10
2019-03-25T20:35:37.364Z,5.10
2019-03-25T20:40:40.848Z,5.00
2019-03-25T20:45:44.345Z,5.00
2019-03-25T20:50:47.725Z,4.90
2019-03-25T20:55:51.184Z,4.90
2019-03-25T21:00:56.146Z,4.80
2019-03-25T21:05:59.592Z,4.80
2019-03-25T21:11:03.507Z,4.70
2019-03-25T21:16:07.086Z,4.70
2019-03-25T21:21:10.554Z,4.60
2019-03-25T21:26:13.974Z,4.60
2019-03-25T21:31:17.355Z,4.50
2019-03-25T21:36:20.872Z,4.50
2019-03-25T21:41:24.320Z,4.40
2019-03-25T21:46:27.743Z,4.40
2019-03-25T21:51:31.215Z,4.40
2019-03-25T21:56:34.608Z,4.30
2019-03-25T22:01:37.993Z,4.30
2019-03-25T22:06:41.381Z,4.20
2019-03-25T22:11:44.753Z,4.20
2019-03-25T22:16:48.130Z,4.20
2019-03-25T22:21:51.539Z,4.20
2019-03-25T22:26:54.957Z,4.20
2019-03-25T22:31:58.319Z,4.20
2019-03-25T22:37:01.793Z,4.20
2019-03-25T22:42:05.193Z,4.20
2019-03-25T22:47:08.568Z,4.10
2019-03-25T22:52:11.962Z,4.10
2019-03-25T22:57:15.335Z,4.10
2019-03-25T23:02:18.712Z,4.10
2019-03-25T23:07:22.094Z,4.00
2019-03-25T23:12:25.468Z,4.00
2019-03-25T23:17:28.851Z,4.00
2019-03-25T23:22:32.227Z,3.90
2019-03-25T23:27:35.624Z,3.90
2019-03-25T23:32:39.000Z,3.80
2019-03-25T23:37:42.396Z,3.80
2019-03-25T23:42:45.775Z,3.80
2019-03-25T23:47:49.184Z,3.70
2019-03-25T23:52:52.569Z,3.70
2019-03-25T23:57:56.024Z,3.60
